Flight Track Log - Related Links

Times and Time Zones

All times are in EDT time to prevent confusion due to time zone crossing. See the CPT368 flight status page for this flight to view local times or setup timezone preferences in your user account.

Time Position Orientation Groundspeed Altitude Reporting Facility
EDT Latitude Longitude Course Direction KTS MPH feet Rate Location/Type
Mon 12:39:27 PM 21.1500 -157.0833 270° West 60 69 1,300  Level Honolulu Center
Mon 12:40:27 PM 21.1500 -157.1000 270° West 110 127 2,300 992 Climbing Honolulu Center
Mon 12:41:28 PM 21.1333 -157.1333 242° Southwest 140 161 3,300 843 Climbing Honolulu Center
Mon 12:42:28 PM 21.1333 -157.1833 270° West 150 173 4,000 350 Climbing Honolulu Center
Mon 12:43:28 PM 21.1333 -157.2333 270° West 170 196 4,000  Level Honolulu Center
Mon 12:44:28 PM 21.1167 -157.2833 250° West 170 196 4,000  Level Honolulu Center
Mon 12:45:28 PM 21.1167 -157.3333 270° West 170 196 4,000  Level Honolulu Center
Mon 12:46:28 PM 21.1333 -157.3833 290° West 170 196 4,000  Level Honolulu Center
Mon 12:47:28 PM 21.1333 -157.4333 270° West 170 196 4,000 -99 Level Honolulu Center
Mon 12:48:29 PM 21.1333 -157.4833 270° West 180 207 3,800 -347 Descending Honolulu Center
Mon 12:49:29 PM 21.1333 -157.5500 270° West 180 207 3,300 -550 Descending Honolulu Center
Mon 12:50:29 PM 21.1333 -157.6000 270° West 180 207 2,700 -600 Descending Honolulu Center
Mon 12:51:29 PM 21.1333 -157.6500 270° West 170 196 2,100 -550 Descending Honolulu Center
Mon 12:52:29 PM 21.1333 -157.7000 270° West 180 207 1,600 -300 Descending Honolulu Center
Mon 12:53:29 PM 21.1333 -157.7500 270° West 160 184 1,500 -50 Descending Honolulu Center
Mon 12:54:29 PM 21.1333 -157.8000 270° West 180 207 1,500  Level Honolulu Center
Mon 12:55:30 PM 21.1333 -157.8500 270° West 160 184 1,500  Level Honolulu Center
Mon 12:56:30 PM 21.1500 -157.9000 290° West 170 196 1,500  Level Honolulu Center
Mon 12:57:29 PM 21.1667 -157.9333 298° West 160 184 1,500 -101 Level Honolulu Center
Mon 12:58:29 PM 21.2167 -157.9333 360° North 150 173 1,300 -198 Descending Honolulu Center
Mon 12:59:30 PM 21.2500 -157.9500 335° Northwest 140 161 1,100 -397 Descending Honolulu Center
Mon 01:00:30 PM 21.2833 -157.9333 25° Northeast 120 138 500 -600 Descending Honolulu Center

Login

Don't have an account? Register now (free) for customized features, flight alerts, and more!